Погода Аль-Вакрана неделю

Доха, Катар

25 февраля-02 марта
  • 25февраля
    Сегодня
    +17°
    +26°
    Ясно и безоблачно
    ВремяПогодаТемператураВлажностьДавлениеВетер, м/сВероятность осадков
    00:00Облачно с прояснениями+21°C69 %757 мм3.5 м/с2 %
    03:00Практически безоблачно+22°C62 %755 мм4.1 м/с2 %
    06:00Облачно с прояснениями+21°C73 %756 мм1.0 м/с2 %
    09:00Пасмурно, сплошная облачность+23°C76 %757 мм4.5 м/с12 %
    12:00Облачно с прояснениями+25°C67 %756 мм3.7 м/с17 %
    15:00Ясно и безоблачно+26°C57 %754 мм0.5 м/с4 %
    18:00Ясно и безоблачно+22°C71 %756 мм8.2 м/с2 %
    21:00Ясно и безоблачно+21°C75 %758 мм6.8 м/с2 %
  • 26февраля
    Понедельник
    +15°
    +24°
    Практически безоблачно
    ВремяПогодаТемператураВлажностьДавлениеВетер, м/сВероятность осадков
    00:00Ясно и безоблачно+19°C84 %758 мм6.4 м/с2 %
    03:00Ясно и безоблачно+18°C84 %758 мм6.1 м/с2 %
    06:00Ясно и безоблачно+17°C84 %758 мм5.1 м/с2 %
    09:00Практически безоблачно+20°C67 %760 мм7.1 м/с2 %
    12:00Облачно с прояснениями+23°C54 %759 мм6.6 м/с2 %
    15:00Практически безоблачно+23°C50 %758 мм7.4 м/с2 %
    18:00Ясно и безоблачно+21°C53 %759 мм6.3 м/с2 %
    21:00Ясно и безоблачно+19°C72 %760 мм3.8 м/с2 %
  • 27февраля
    Вторник
    +16°
    +24°
    Ясно и безоблачно
    ВремяПогодаТемператураВлажностьДавлениеВетер, м/сВероятность осадков
    00:00Ясно и безоблачно+17°C82 %760 мм3.2 м/с2 %
    03:00Ясно и безоблачно+16°C91 %760 мм3.6 м/с2 %
    06:00Ясно и безоблачно+15°C92 %761 мм3.5 м/с2 %
    09:00Ясно и безоблачно+20°C58 %762 мм3.2 м/с2 %
    12:00Ясно и безоблачно+23°C42 %761 мм4.3 м/с2 %
    15:00Ясно и безоблачно+24°C41 %760 мм5.0 м/с2 %
    18:00Ясно и безоблачно+21°C50 %760 мм5.4 м/с2 %
    21:00Ясно и безоблачно+20°C62 %761 мм3.9 м/с2 %
  • 28февраля
    Среда
    +16°
    +23°
    Ясно и безоблачно
    ВремяПогодаТемператураВлажностьДавлениеВетер, м/сВероятность осадков
    00:00Ясно и безоблачно+19°C72 %761 мм1.9 м/с2 %
    03:00Практически безоблачно+18°C82 %759 мм1.9 м/с4 %
    06:00Ясно и безоблачно+17°C84 %761 мм3.3 м/с2 %
    09:00Ясно и безоблачно+21°C61 %762 мм4.5 м/с2 %
    12:00Практически безоблачно+23°C53 %761 мм6.9 м/с2 %
    15:00Ясно и безоблачно+22°C54 %759 мм7.4 м/с6 %
    18:00Практически безоблачно+20°C65 %760 мм7.1 м/с7 %
    21:00Ясно и безоблачно+20°C66 %761 мм4.6 м/с3 %
  • 29февраля
    Четверг
    +14°
    +24°
    Ясно и безоблачно
    ВремяПогодаТемператураВлажностьДавлениеВетер, м/сВероятность осадков
    00:00Ясно и безоблачно+18°C78 %761 мм5.3 м/с2 %
    03:00Ясно и безоблачно+17°C78 %760 мм6.3 м/с2 %
    06:00Ясно и безоблачно+17°C84 %761 мм7.3 м/с2 %
    09:00Ясно и безоблачно+20°C56 %763 мм8.3 м/с2 %
    12:00Ясно и безоблачно+24°C46 %761 мм8.3 м/с2 %
    15:00Ясно и безоблачно+23°C46 %760 мм9.8 м/с2 %
    18:00Ясно и безоблачно+19°C46 %761 мм9.1 м/с2 %
    21:00Ясно и безоблачно+17°C47 %763 мм7.7 м/с2 %
Мы используем cookies
Соглашаюсь